Flight Track Log - Related Links

Times and Time Zones

All times are in EDT time to prevent confusion due to time zone crossing. See the EJM552 flight status page for this flight to view local times or setup timezone preferences in your user account.

Time Position Orientation Groundspeed Altitude Reporting Facility
EDT Latitude Longitude Course Direction KTS MPH feet Rate Location/Type
Thu 06:25:09 PM 39.6333 -104.8833 142° Southeast 244 281 8,000  Level Denver TRACON
Thu 06:26:40 PM 39.5464 -104.9447 209° Southwest 259 298 9,700 1,647 Climbing Denver Center
Thu 06:27:42 PM 39.4606 -104.9103 163° South 305 351 12,200 2,468 Climbing Denver Center
Thu 06:28:44 PM 39.3747 -104.8753 163° South 322 371 14,800 2,516 Climbing Denver Center
Thu 06:29:46 PM 39.2744 -104.8328 162° South 352 405 17,400 2,468 Climbing Denver Center
Thu 06:30:00 PM 39.0539 -104.2527 142° Southeast  Level Estimated
Thu 06:30:48 PM 39.1769 -104.7933 163° South 367 422 19,900  Level Denver Center
Thu 06:31:50 PM 39.0831 -104.7528 161° South 362 417 22,100 1,839 Climbing Denver Center
Thu 06:32:52 PM 38.9800 -104.7114 163° South 385 443 23,700 1,694 Climbing Denver Center
Thu 06:33:54 PM 38.8619 -104.6628 162° South 400 460 25,600 1,887 Climbing Denver Center
Thu 06:34:56 PM 38.7447 -104.6125 162° South 407 468 27,600 1,776 Climbing Denver Center
Thu 06:35:59 PM 38.6344 -104.5672 162° South 416 479 29,300 1,536 Climbing Denver Center
Thu 06:37:01 PM 38.5233 -104.5219 162° South 420 483 30,800 1,452 Climbing Denver Center
Thu 06:38:03 PM 38.4083 -104.4731 162° South 434 499 32,300 1,355 Climbing Denver Center
Thu 06:39:05 PM 38.2892 -104.4233 162° South 438 504 33,600 1,258 Climbing Denver Center
Thu 06:40:07 PM 38.1683 -104.3253 147° Southeast 458 527 34,900 1,210 Climbing Denver Center
Thu 06:41:09 PM 38.0650 -104.2422 148° Southeast 458 527 36,100 1,258 Climbing Denver Center
Thu 06:42:11 PM 37.9481 -104.1481 148° Southeast 446 513 37,500 1,220 Climbing Denver Center
Thu 06:43:12 PM 37.8494 -104.0686 148° Southeast 440 506 38,600 1,220 Climbing Denver Center
Thu 06:44:14 PM 37.7361 -103.9778 148° Southeast 430 495 40,000 1,161 Climbing Denver Center
Thu 06:45:16 PM 37.6408 -103.9006 147° Southeast 421 484 41,000 484 Climbing Denver Center
Thu 06:46:18 PM 37.5406 -103.8217 148° Southeast 433 498 41,000  Level Denver Center
Thu 06:47:20 PM 37.4208 -103.7267 148° Southeast 448 516 41,000  Level Denver Center
Thu 06:48:22 PM 37.3189 -103.6467 148° Southeast 450 518 41,000  Level Denver Center
Thu 06:49:24 PM 37.2086 -103.5322 140° Southeast 472 543 41,000  Level Denver Center
Thu 06:50:26 PM 37.1236 -103.4172 133° Southeast 471 542 41,000  Level Denver Center
Thu 06:51:28 PM 37.0222 -103.2808 133° Southeast 477 549 41,000  Level Denver Center
Thu 06:52:30 PM 36.9347 -103.1647 133° Southeast 479 551 41,000  Level Denver Center
Thu 06:53:32 PM 36.8469 -103.0486 133° Southeast 480 552 41,000  Level Denver Center
Thu 06:54:57 PM 36.7150 -102.8756 134° Southeast 481 554 41,000  Level Albuquerque Center
Thu 06:55:59 PM 36.6217 -102.7533 134° Southeast 483 556 41,000  Level Albuquerque Center
Thu 06:57:01 PM 36.5297 -102.6328 133° Southeast 481 554 41,000  Level Albuquerque Center
Thu 06:58:03 PM 36.4181 -102.4883 134° Southeast 482 555 41,000  Level Albuquerque Center
Thu 06:59:05 PM 36.3244 -102.3661 134° Southeast 487 560 41,000  Level Albuquerque Center
Thu 07:00:06 PM 36.2311 -102.2453 134° Southeast 487 560 41,000  Level Albuquerque Center
Thu 07:01:08 PM 36.1381 -102.1256 134° Southeast 484 557 41,000  Level Albuquerque Center
Thu 07:02:10 PM 36.0431 -102.0044 134° Southeast 488 562 41,000  Level Albuquerque Center
Thu 07:03:12 PM 35.9489 -101.8831 134° Southeast 489 563 41,000  Level Albuquerque Center
Thu 07:04:13 PM 35.8550 -101.7628 134° Southeast 487 560 41,000  Level Albuquerque Center
Thu 07:05:15 PM 35.7619 -101.6425 134° Southeast 484 557 41,000  Level Albuquerque Center
Thu 07:06:17 PM 35.6486 -101.4997 134° Southeast 482 555 41,000  Level Albuquerque Center
Thu 07:07:19 PM 35.5544 -101.3803 134° Southeast 483 556 41,000  Level Albuquerque Center
Thu 07:08:20 PM 35.4592 -101.2614 135° Southeast 484 557 41,000  Level Albuquerque Center
Thu 07:09:22 PM 35.3633 -101.1425 135° Southeast 485 558 41,000  Level Albuquerque Center
Thu 07:10:24 PM 35.2683 -101.0233 134° Southeast 485 558 41,000  Level Albuquerque Center
Thu 07:11:26 PM 35.1736 -100.9072 135° Southeast 483 556 41,000  Level Albuquerque Center
Thu 07:12:27 PM 35.0803 -100.7925 135° Southeast 478 550 41,000  Level Albuquerque Center
Thu 07:13:29 PM 34.9883 -100.6767 134° Southeast 476 548 41,000  Level Albuquerque Center
Thu 07:14:31 PM 34.8758 -100.5383 135° Southeast 477 549 41,000  Level Albuquerque Center
Thu 07:15:33 PM 34.7825 -100.4239 135° Southeast 476 548 41,000  Level Albuquerque Center
Thu 07:16:34 PM 34.7036 -100.3264 135° Southeast 473 544 41,000  Level Albuquerque Center
Thu 07:17:36 PM 34.5983 -100.1992 135° Southeast 470 541 41,000  Level Albuquerque Center
Thu 07:18:38 PM 34.4997 -100.0778 135° Southeast 473 544 41,000  Level Albuquerque Center
Thu 07:19:40 PM 34.4056 -99.9647 135° Southeast 475 547 41,000  Level Albuquerque Center
Thu 07:20:41 PM 34.3122 -99.8522 135° Southeast 474 545 41,000  Level Albuquerque Center
Thu 07:21:43 PM 34.2181 -99.7400 135° Southeast 474 545 41,000  Level Albuquerque Center
Thu 07:22:45 PM 34.1244 -99.6278 135° Southeast 474 545 41,000  Level Albuquerque Center
Thu 07:23:46 PM 34.0314 -99.5156 135° Southeast 473 544 41,000  Level Albuquerque Center
Thu 07:24:53 PM 33.9097 -99.3731 136° Southeast 473 544 41,000  Level Fort Worth Center
Thu 07:25:53 PM 33.8153 -99.2608 135° Southeast 478 550 41,000  Level Fort Worth Center
Thu 07:26:53 PM 33.7208 -99.1492 135° Southeast 473 544 41,000  Level Fort Worth Center
Thu 07:27:53 PM 33.6386 -99.0528 136° Southeast 473 544 41,000  Level Fort Worth Center
Thu 07:28:53 PM 33.5319 -98.9236 135° Southeast 481 554 41,000  Level Fort Worth Center
Thu 07:29:53 PM 33.4350 -98.8125 136° Southeast 486 559 41,000  Level Fort Worth Center
Thu 07:30:53 PM 33.3422 -98.7039 136° Southeast 480 552 41,000  Level Fort Worth Center
Thu 07:31:53 PM 33.2453 -98.5933 136° Southeast 474 545 41,000  Level Fort Worth Center
Thu 07:32:53 PM 33.1625 -98.4978 136° Southeast 474 545 41,000  Level Fort Worth Center
Thu 07:33:53 PM 33.0694 -98.3950 137° Southeast 468 539 41,000  Level Fort Worth Center
Thu 07:34:53 PM 32.9742 -98.2900 137° Southeast 463 533 41,000  Level Fort Worth Center
Thu 07:35:53 PM 32.8853 -98.1828 135° Southeast 463 533 41,000  Level Fort Worth Center
Thu 07:36:53 PM 32.7897 -98.0758 137° Southeast 463 533 41,000  Level Fort Worth Center
Thu 07:37:53 PM 32.6964 -97.9664 135° Southeast 463 533 41,000  Level Fort Worth Center
Thu 07:38:53 PM 32.6092 -97.8550 133° Southeast 468 539 41,000  Level Fort Worth Center
Thu 07:39:53 PM 32.5178 -97.7436 134° Southeast 468 539 41,000  Level Fort Worth Center
Thu 07:40:53 PM 32.4281 -97.6300 133° Southeast 462 532 41,000  Level Fort Worth Center
Thu 07:41:53 PM 32.3364 -97.5217 135° Southeast 462 532 41,000  Level Fort Worth Center
Thu 07:42:53 PM 32.2383 -97.3961 133° Southeast 462 532 41,000  Level Fort Worth Center
Thu 07:43:53 PM 32.1464 -97.2833 134° Southeast 467 537 41,000  Level Fort Worth Center
Thu 07:44:53 PM 32.0564 -97.1708 133° Southeast 467 537 41,000  Level Fort Worth Center
Thu 07:45:53 PM 31.9664 -97.0608 134° Southeast 467 537 41,000 -950 Level Fort Worth Center
Thu 07:46:53 PM 31.8869 -96.9583 132° Southeast 467 537 39,100 -2,315 Descending Fort Worth Center
Thu 07:48:00 PM 31.7833 -96.8339 134° Southeast 473 544 36,100 -2,558 Descending Houston Center
Thu 07:49:02 PM 31.6919 -96.7211 134° Southeast 472 543 33,600 -2,468 Descending Houston Center
Thu 07:50:04 PM 31.5972 -96.6067 134° Southeast 478 550 31,000 -2,226 Descending Houston Center
Thu 07:51:06 PM 31.4836 -96.5078 143° Southeast 496 571 29,000 -1,790 Descending Houston Center
Thu 07:52:08 PM 31.3653 -96.4336 152° Southeast 475 547 27,300 -2,177 Descending Houston Center
Thu 07:53:10 PM 31.2208 -96.3417 151° Southeast 490 564 24,500 -1,597 Descending Houston Center
Thu 07:54:12 PM 31.1008 -96.2667 152° Southeast 483 556 24,000 -1,452 Descending Houston Center
Thu 07:55:14 PM 30.9850 -96.1939 152° Southeast 474 545 21,500 -2,371 Descending Houston Center
Thu 07:56:16 PM 30.8711 -96.1225 152° Southeast 461 531 19,100 -2,293 Descending Houston Center
Thu 07:57:17 PM 30.7664 -96.0564 152° Southeast 428 493 16,800 -2,283 Descending Houston Center
Thu 07:57:48 PM 30.7103 -96.0225 153° Southeast 397 457 15,600 -1,839 Descending Houston Center
Thu 07:58:19 PM 30.6733 -95.9997 152° Southeast 407 468 14,900 -2,164 Descending Houston Center
Thu 07:58:49 PM 30.6106 -95.9611 152° Southeast 395 455 13,400 -2,032 Descending Houston Center
Thu 07:59:21 PM 30.5761 -95.9383 150° Southeast 396 456 12,800 -1,770 Descending Houston Center
Thu 07:59:50 PM 30.5219 -95.9058 153° Southeast 329 379 11,600 -2,032 Descending Houston Center
Thu 08:00:23 PM 30.4814 -95.8797 151° Southeast 319 367 10,700 -1,343 Descending Houston Center
Thu 08:00:57 PM 30.4392 -95.8478 147° Southeast 297 342 10,100 -1,161 Descending Houston Center
Thu 08:01:25 PM 30.4158 -95.8233 138° Southeast 295 339 9,500 -1,967 Descending Houston Center
Thu 08:01:58 PM 30.3817 -95.7889 139° Southeast 280 322 8,100 -2,226 Descending Houston Center
Thu 08:02:27 PM 30.3508 -95.7858 175° South 284 327 7,200 -1,929 Descending Houston Center
Thu 08:02:54 PM 30.3097 -95.7828 176° South 277 319 6,300 -1,065 Descending Houston Center
Thu 08:03:29 PM 30.2817 -95.7600 145° Southeast 271 312 6,100 -179 Descending Houston Center
Thu 08:04:01 PM 30.2417 -95.7256 143° Southeast 270 311 6,100  Level Houston Center
Thu 08:04:31 PM 30.2206 -95.7092 146° Southeast 271 312 6,100 -98 Level Houston Center
Thu 08:05:02 PM 30.1786 -95.6750 145° Southeast 266 306 6,000 -387 Descending Houston Center
Thu 08:05:33 PM 30.1608 -95.6600 144° Southeast 266 306 5,700 -1,309 Descending Houston Center
Thu 08:05:57 PM 30.1219 -95.6286 145° Southeast 270 311 4,800 -1,645 Descending Houston Center
Thu 08:06:35 PM 30.0878 -95.6000 144° Southeast 267 307 4,000 -1,258 Descending Houston Center
Thu 08:06:59 PM 30.0653 -95.5822 146° Southeast 249 287 3,500 -871 Descending Houston Center
Thu 08:07:37 PM 30.0419 -95.5467 127° Southeast 242 278 3,100 -393 Descending Houston Center
Thu 08:08:00 PM 30.0283 -95.5214 122° Southeast 214 246 3,100 -290 Level Houston Center
Thu 08:08:39 PM 30.0142 -95.4908 118° Southeast 211 243 2,800 -806 Descending Houston Center
Thu 08:09:07 PM 30.0103 -95.4608 99° East 188 216 2,200 -1,161 Descending Houston Center
Thu 08:09:41 PM 30.0089 -95.4350 94° East 191 220 1,600 -1,179 Descending Houston Center
Thu 08:10:03 PM 30.0058 -95.4131 99° East 158 182 1,100 -968 Descending Houston Center
Thu 08:10:43 PM 30.0072 -95.3878 86° East 168 193 600 -787 Descending Houston Center
Thu 08:11:04 PM 30.0061 -95.3694 94° East 137 158 300 -290 Descending Houston Center
Thu 08:11:45 PM 30.0075 -95.3333 87° East 159 183 300  Level Houston Center
Thu 08:13:00 PM 29.9833 -95.3333 131° Southeast  Level FlightAware Approximate

Login

Don't have an account? Register now (free) for customized features, flight alerts, and more!